Humber Bridge — 3EHZ5 — position and weather

sailwx.info

Track history (hours):
 
Tides and Currents Weather Stations Pressure Air Temp Water Temp Dewpoint Dewpoint Depression Visibility Wind Speed Wind Dir Waves Ship Positions

Humber Bridge

Last reported at 2018-Feb-14 22:53 UTC. Time now 2018-Feb-21 14:45 UTC.
Position N 35°59' E 120°31'.

Length 336 m; draft 9.6 m.

Type: Ship (hazmat cat A). MMSI: 372038000.

Date/timePositionNaut miles runAvg speedWind from/ knotsBaromVisibWave heightAir tempDewpointWater temp
2018-Feb-14 22:53N 35°59' E 120°31'1012.7
2018-Feb-14 22:08N 36°01' E 120°19'5 9.4
2018-Feb-14 21:38N 36°01' E 120°13'1 4.6
2018-Feb-14 21:23N 36°00' E 120°12'0 0.4
2018-Feb-14 20:50N 36°00' E 120°12'0 0.0
2018-Feb-14 19:21N 36°00' E 120°12'0 0.0
2018-Feb-14 18:47N 36°00' E 120°12'0 0.0
2018-Feb-14 18:29N 36°00' E 120°12'0 0.1
2018-Feb-14 17:57N 36°00' E 120°12'0 0.0
2018-Feb-14 17:24N 36°00' E 120°12'0 0.1
2018-Feb-14 16:50N 36°00' E 120°12'0 0.0
2018-Feb-14 13:06N 36°00' E 120°12'0 0.0
2018-Feb-14 10:57N 36°00' E 120°12'0 0.0
2018-Feb-14 10:14N 36°00' E 120°12'0 0.0
2018-Feb-14 08:21N 36°00' E 120°12'0 0.0
2018-Feb-14 06:53N 36°00' E 120°12'0 0.0
2018-Feb-14 06:08N 36°00' E 120°12'0 0.0
2018-Feb-14 05:51N 36°00' E 120°12'0 0.1
2018-Feb-14 05:26N 36°00' E 120°12'0 0.1
2018-Feb-14 04:32N 36°00' E 120°12'0 0.0
2018-Feb-14 03:35N 36°00' E 120°12'0 0.3
2018-Feb-14 03:20N 36°00' E 120°12'3 6.4
2018-Feb-14 02:49N 36°02' E 120°16'4 8.2
2018-Feb-14 02:19N 36°01' E 120°21'7 9.1
2018-Feb-14 01:34N 36°00' E 120°29'  
2018-Feb-09 05:00N 41°31' E 140°38'3718.3
2018-Feb-09 03:00N 41°41' E 141°25'  
Track history (hours):
 
Tides and Currents Weather Stations Pressure Air Temp Water Temp Dewpoint Dewpoint Depression Visibility Wind Speed Wind Dir Waves Ship Positions

Humber Bridge

Last reported at 2018-Feb-14 22:53 UTC. Time now 2018-Feb-21 14:45 UTC.
Position N 35°59' E 120°31'.

Length 336 m; draft 9.6 m.

Type: Ship (hazmat cat A). MMSI: 372038000.

Date/timePositionNaut miles runAvg speedWind from/ knotsBaromVisibWave heightAir tempDewpointWater temp
2018-Feb-14 22:53N 35°59' E 120°31'1012.7
2018-Feb-14 22:08N 36°01' E 120°19'5 9.4
2018-Feb-14 21:38N 36°01' E 120°13'1 4.6
2018-Feb-14 21:23N 36°00' E 120°12'0 0.4
2018-Feb-14 20:50N 36°00' E 120°12'0 0.0
2018-Feb-14 19:21N 36°00' E 120°12'0 0.0
2018-Feb-14 18:47N 36°00' E 120°12'0 0.0
2018-Feb-14 18:29N 36°00' E 120°12'0 0.1
2018-Feb-14 17:57N 36°00' E 120°12'0 0.0
2018-Feb-14 17:24N 36°00' E 120°12'0 0.1
2018-Feb-14 16:50N 36°00' E 120°12'0 0.0
2018-Feb-14 13:06N 36°00' E 120°12'0 0.0
2018-Feb-14 10:57N 36°00' E 120°12'0 0.0
2018-Feb-14 10:14N 36°00' E 120°12'0 0.0
2018-Feb-14 08:21N 36°00' E 120°12'0 0.0
2018-Feb-14 06:53N 36°00' E 120°12'0 0.0
2018-Feb-14 06:08N 36°00' E 120°12'0 0.0
2018-Feb-14 05:51N 36°00' E 120°12'0 0.1
2018-Feb-14 05:26N 36°00' E 120°12'0 0.1
2018-Feb-14 04:32N 36°00' E 120°12'0 0.0
2018-Feb-14 03:35N 36°00' E 120°12'0 0.3
2018-Feb-14 03:20N 36°00' E 120°12'3 6.4
2018-Feb-14 02:49N 36°02' E 120°16'4 8.2
2018-Feb-14 02:19N 36°01' E 120°21'7 9.1
2018-Feb-14 01:34N 36°00' E 120°29'  
2018-Feb-09 05:00N 41°31' E 140°38'3718.3
2018-Feb-09 03:00N 41°41' E 141°25'  

Dump ship's entire track history